Time;durP1;ratioP1;P1;durP2;ratioP2;P2;SDS_P1;SDS_P2;PMS_P1;PMS_P2;Temp;Humidity;BMP_temperature;BMP_pressure;BME280_temperature;BME280_humidity;BME280_pressure;Samples;Min_cycle;Max_cycle;Signal;HPM_P1;HPM_P2
2023/03/24 00:02:42;;;;;;;17.10;9.70;;;;;;;9.19;98.83;99698.91;213482;1291;138826;-89
2023/03/24 00:07:43;;;;;;;19.00;10.40;;;;;;;9.15;99.18;99699.98;215023;1289;97952;-88
2023/03/24 00:12:45;;;;;;;18.80;9.90;;;;;;;9.05;98.79;99688.02;213260;1294;138828;-89
2023/03/24 00:17:49;;;;;;;22.70;10.40;;;;;;;8.97;99.01;99684.77;214037;1291;138953;-88
2023/03/24 00:22:57;;;;;;;19.10;10.00;;;;;;;8.91;99.37;99689.89;213417;1288;139516;-88
2023/03/24 00:27:58;;;;;;;17.50;9.40;;;;;;;8.83;99.96;99691.19;214254;1289;138699;-88
2023/03/24 00:33:00;;;;;;;17.50;9.50;;;;;;;8.74;100.00;99693.08;213386;1291;138684;-89
2023/03/24 00:38:01;;;;;;;17.90;9.30;;;;;;;8.68;100.00;99689.68;214033;1291;98257;-89
2023/03/24 00:43:02;;;;;;;18.60;9.90;;;;;;;8.66;100.00;99686.05;213471;1291;138432;-88
2023/03/24 00:48:04;;;;;;;18.50;9.80;;;;;;;8.66;100.00;99678.07;213913;1289;138556;-89
2023/03/24 00:53:04;;;;;;;17.10;9.50;;;;;;;8.67;100.00;99668.66;213423;1289;139195;-88
2023/03/24 00:58:06;;;;;;;17.50;9.60;;;;;;;8.68;100.00;99662.55;213946;1291;138648;-88
2023/03/24 01:03:08;;;;;;;16.00;8.40;;;;;;;8.69;100.00;99656.30;213441;1291;139999;-89
2023/03/24 01:08:09;;;;;;;15.00;8.10;;;;;;;8.73;100.00;99652.95;213979;1289;139289;-88
2023/03/24 01:13:10;;;;;;;15.80;8.60;;;;;;;8.76;100.00;99653.05;213480;1289;140083;-88
2023/03/24 01:18:14;;;;;;;19.10;9.50;;;;;;;8.80;100.00;99645.45;213950;1293;138498;-88
2023/03/24 01:23:21;;;;;;;16.20;8.60;;;;;;;8.85;100.00;99636.31;214333;1292;139808;-88
2023/03/24 01:28:23;;;;;;;15.10;8.20;;;;;;;8.88;100.00;99628.73;214005;1291;139469;-87
2023/03/24 01:33:24;;;;;;;15.90;8.50;;;;;;;8.92;100.00;99627.50;213562;1294;139672;-88
2023/03/24 01:38:24;;;;;;;16.60;8.10;;;;;;;8.96;100.00;99618.98;214149;1289;139071;-88
2023/03/24 01:43:31;;;;;;;17.10;8.50;;;;;;;9.01;100.00;99618.91;213639;1290;138663;-88
2023/03/24 01:48:46;;;;;;;15.40;8.40;;;;;;;9.06;100.00;99616.66;213990;1291;138500;-89
2023/03/24 01:53:56;;;;;;;15.80;8.10;;;;;;;9.12;100.00;99617.16;213628;1288;138808;-87
2023/03/24 01:59:00;;;;;;;16.40;7.40;;;;;;;9.17;100.00;99611.53;213404;1292;139479;-88
2023/03/24 02:04:03;;;;;;;14.70;7.40;;;;;;;9.23;100.00;99611.77;213836;1289;140028;-88
2023/03/24 02:09:04;;;;;;;15.50;7.20;;;;;;;9.26;100.00;99603.64;213463;1292;139149;-88
2023/03/24 02:14:06;;;;;;;12.80;6.60;;;;;;;9.31;100.00;99594.31;213928;1291;139252;-88
2023/03/24 02:19:36;;;;;;;16.40;6.90;;;;;;;9.36;100.00;99586.72;213452;1294;139161;-88
2023/03/24 02:25:13;;;;;;;13.50;6.20;;;;;;;9.38;100.00;99583.58;213927;1289;138530;-87
2023/03/24 02:30:29;;;;;;;14.20;6.20;;;;;;;9.37;100.00;99577.86;212905;1293;140044;-88
2023/03/24 02:35:52;;;;;;;13.70;5.90;;;;;;;9.37;100.00;99572.21;213798;1293;138493;-88
2023/03/24 02:41:32;;;;;;;13.40;5.90;;;;;;;9.36;100.00;99572.29;213909;1294;139300;-88
2023/03/24 02:46:52;;;;;;;13.10;6.50;;;;;;;9.35;100.00;99566.08;213950;1289;139431;-88
2023/03/24 02:51:57;;;;;;;14.50;7.80;;;;;;;9.32;100.00;99556.82;213317;1293;139160;-89
2023/03/24 02:57:18;;;;;;;20.60;9.20;;;;;;;9.30;100.00;99557.83;213908;1291;139518;-88
2023/03/24 03:02:25;;;;;;;13.70;6.80;;;;;;;9.27;100.00;99559.63;213758;1288;139671;-88
2023/03/24 03:07:32;;;;;;;14.90;6.50;;;;;;;9.25;100.00;99554.38;213956;1294;97944;-88
2023/03/24 03:12:36;;;;;;;11.30;5.50;;;;;;;9.23;100.00;99550.14;213372;1291;138807;-88
2023/03/24 03:18:04;;;;;;;12.30;6.50;;;;;;;9.22;100.00;99548.48;213967;1289;138970;-88
2023/03/24 03:23:15;;;;;;;12.00;6.20;;;;;;;9.21;100.00;99536.80;213179;1289;138881;-88
2023/03/24 03:28:20;;;;;;;21.40;10.00;;;;;;;9.18;100.00;99536.64;214116;1288;138911;-89
2023/03/24 03:33:25;;;;;;;21.70;10.70;;;;;;;9.17;100.00;99525.48;213434;1291;139629;-89
2023/03/24 03:38:59;;;;;;;17.60;9.20;;;;;;;9.16;100.00;99515.52;214059;1289;139036;-89
2023/03/24 03:44:00;;;;;;;20.20;9.40;;;;;;;9.13;100.00;99512.61;213705;1289;138899;-88
2023/03/24 03:49:02;;;;;;;16.60;9.00;;;;;;;9.12;100.00;99503.60;213459;1292;139020;-88
2023/03/24 03:54:07;;;;;;;17.60;9.20;;;;;;;9.11;100.00;99499.36;214389;1289;139521;-88
2023/03/24 03:59:41;;;;;;;20.00;10.20;;;;;;;9.08;100.00;99489.16;214249;1289;139525;-89
2023/03/24 04:04:51;;;;;;;23.30;11.80;;;;;;;9.06;100.00;99482.41;214206;1289;138971;-88
2023/03/24 04:10:28;;;;;;;32.30;17.10;;;;;;;9.03;100.00;99479.04;213126;1293;376642;-87
2023/03/24 04:15:54;;;;;;;56.20;25.30;;;;;;;9.00;100.00;99472.29;213788;1292;138972;-88
2023/03/24 04:21:16;;;;;;;44.90;19.90;;;;;;;8.97;100.00;99469.08;213366;1294;139552;-88
2023/03/24 04:27:01;;;;;;;42.50;20.60;;;;;;;8.95;100.00;99461.61;213870;1291;139376;-87
2023/03/24 04:32:18;;;;;;;49.60;21.90;;;;;;;8.91;100.00;99457.91;213370;1289;139434;-87
2023/03/24 04:37:31;;;;;;;39.50;18.80;;;;;;;8.88;100.00;99452.66;213956;1292;111427;-88
2023/03/24 04:42:36;;;;;;;20.10;11.30;;;;;;;8.86;100.00;99445.92;213332;1289;139338;-88
2023/03/24 04:47:44;;;;;;;21.60;11.50;;;;;;;8.83;100.00;99441.27;213928;1293;139612;-88
2023/03/24 04:52:44;;;;;;;18.50;10.30;;;;;;;8.82;100.00;99429.05;213332;1291;140715;-87
2023/03/24 04:57:45;;;;;;;21.50;11.00;;;;;;;8.82;100.00;99419.48;213791;1291;139159;-88
2023/03/24 05:02:45;;;;;;;20.50;10.20;;;;;;;8.84;100.00;99412.60;213323;1288;139147;-88
2023/03/24 05:07:46;;;;;;;19.70;9.00;;;;;;;8.85;100.00;99408.61;213981;1290;97928;-89
2023/03/24 05:12:46;;;;;;;16.10;8.70;;;;;;;8.87;100.00;99408.61;213323;1290;139049;-88
2023/03/24 05:17:46;;;;;;;17.30;8.90;;;;;;;8.93;100.00;99406.96;213774;1289;138654;-88
2023/03/24 05:22:48;;;;;;;14.40;8.10;;;;;;;9.00;100.00;99402.74;213254;1292;139220;-89
2023/03/24 05:27:49;;;;;;;14.40;7.60;;;;;;;9.09;100.00;99397.11;214063;1293;139255;-89
2023/03/24 05:32:49;;;;;;;14.00;7.80;;;;;;;9.18;100.00;99395.61;213569;1289;139416;-88
2023/03/24 05:37:50;;;;;;;15.10;7.70;;;;;;;9.28;100.00;99387.05;213938;1290;98734;-88
2023/03/24 05:42:50;;;;;;;12.60;7.10;;;;;;;9.38;100.00;99382.19;213433;1293;138865;-88
2023/03/24 05:47:51;;;;;;;14.30;7.60;;;;;;;9.49;100.00;99380.52;214272;1289;138692;-89
2023/03/24 05:52:51;;;;;;;14.10;6.90;;;;;;;9.61;100.00;99371.48;214209;1291;139047;-89
2023/03/24 05:57:52;;;;;;;13.30;7.10;;;;;;;9.75;100.00;99369.27;214631;1291;138706;-88
2023/03/24 06:02:53;;;;;;;14.00;7.00;;;;;;;9.87;100.00;99360.42;213914;1289;139379;-89
2023/03/24 06:07:57;;;;;;;14.40;6.20;;;;;;;10.00;100.00;99351.60;214356;1289;98049;-89
2023/03/24 06:12:58;;;;;;;12.60;7.00;;;;;;;10.14;100.00;99354.63;213562;1291;139392;-89
2023/03/24 06:17:59;;;;;;;12.60;7.10;;;;;;;10.28;100.00;99350.86;214047;1288;138857;-89
2023/03/24 06:23:01;;;;;;;16.00;6.60;;;;;;;10.44;100.00;99354.92;213502;1294;139952;-88
2023/03/24 06:28:04;;;;;;;14.30;7.00;;;;;;;10.62;100.00;99352.16;214062;1292;140181;-88
2023/03/24 06:33:05;;;;;;;11.90;7.00;;;;;;;10.79;100.00;99351.80;213614;1292;139166;-88
2023/03/24 06:38:06;;;;;;;12.60;6.60;;;;;;;10.95;100.00;99354.90;214048;1294;140102;-88
2023/03/24 06:43:07;;;;;;;11.60;6.70;;;;;;;11.13;100.00;99354.45;213821;1291;140117;-87
2023/03/24 06:48:08;;;;;;;12.60;6.70;;;;;;;11.29;100.00;99347.77;214308;1290;138951;-86
2023/03/24 06:53:08;;;;;;;13.00;7.00;;;;;;;11.45;100.00;99340.39;214139;1293;140912;-85
2023/03/24 06:58:09;;;;;;;12.90;6.90;;;;;;;11.55;100.00;99328.33;214656;1289;139003;-86
2023/03/24 07:03:10;;;;;;;14.10;7.40;;;;;;;11.64;100.00;99326.68;213927;1289;139953;-86
2023/03/24 07:08:12;;;;;;;12.40;6.70;;;;;;;11.73;100.00;99324.52;215405;1293;139189;-86
2023/03/24 07:13:12;;;;;;;13.20;6.50;;;;;;;11.80;100.00;99334.92;215283;1289;139096;-86
2023/03/24 07:18:13;;;;;;;12.80;6.80;;;;;;;11.87;100.00;99326.33;215481;1289;139060;-87
2023/03/24 07:23:13;;;;;;;11.70;7.00;;;;;;;11.95;100.00;99314.82;214774;1291;139438;-87
2023/03/24 07:28:14;;;;;;;13.70;6.80;;;;;;;12.03;100.00;99314.09;215108;1288;139299;-88
2023/03/24 07:33:15;;;;;;;13.30;7.20;;;;;;;12.11;100.00;99312.80;214713;1289;139907;-88
2023/03/24 07:38:15;;;;;;;13.10;6.80;;;;;;;12.22;100.00;99305.95;214983;1294;139046;-88
2023/03/24 07:43:16;;;;;;;12.60;7.00;;;;;;;12.35;100.00;99309.72;214635;1291;139030;-87
2023/03/24 07:48:17;;;;;;;12.60;6.60;;;;;;;12.44;100.00;99314.16;215124;1288;138866;-87
2023/03/24 07:53:18;;;;;;;12.30;7.10;;;;;;;12.52;100.00;99306.31;214589;1289;139224;-87
2023/03/24 07:58:19;;;;;;;12.30;6.40;;;;;;;12.58;100.00;99303.45;215189;1289;139123;-89
2023/03/24 08:03:26;;;;;;;13.40;6.50;;;;;;;12.65;100.00;99296.65;214720;1289;139711;-86
2023/03/24 08:08:27;;;;;;;10.50;5.30;;;;;;;12.72;100.00;99295.59;215264;1289;139195;-89
2023/03/24 08:13:27;;;;;;;11.00;6.30;;;;;;;12.77;100.00;99291.44;214747;1289;140300;-88
2023/03/24 08:18:28;;;;;;;12.10;5.80;;;;;;;12.80;100.00;99291.22;215197;1288;138946;-89
2023/03/24 08:23:29;;;;;;;9.90;5.40;;;;;;;12.84;100.00;99273.88;214590;1288;139693;-87
2023/03/24 08:28:29;;;;;;;10.70;5.80;;;;;;;12.90;100.00;99260.11;215080;1291;138840;-88
2023/03/24 08:33:29;;;;;;;11.60;6.50;;;;;;;13.01;100.00;99263.36;214531;1289;143017;-88
2023/03/24 08:38:30;;;;;;;10.70;6.20;;;;;;;13.15;100.00;99256.09;215479;1289;139354;-88
2023/03/24 08:43:32;;;;;;;12.30;5.80;;;;;;;13.38;100.00;99256.13;214860;1294;139587;-88
2023/03/24 08:48:33;;;;;;;11.30;5.60;;;;;;;13.68;100.00;99245.27;215265;1291;139921;-87
2023/03/24 08:53:34;;;;;;;14.10;5.40;;;;;;;13.95;100.00;99241.92;214926;1292;139488;-86
2023/03/24 08:58:35;;;;;;;11.00;5.60;;;;;;;14.25;100.00;99237.71;215316;1292;139709;-86
2023/03/24 09:03:38;;;;;;;10.10;4.90;;;;;;;14.53;100.00;99236.84;214683;1288;139120;-88
2023/03/24 09:08:39;;;;;;;12.40;5.20;;;;;;;14.73;100.00;99238.25;215129;1289;139325;-89
2023/03/24 09:13:40;;;;;;;8.10;4.30;;;;;;;14.89;98.76;99237.21;214852;1289;140138;-89
2023/03/24 09:18:41;;;;;;;8.30;4.20;;;;;;;14.98;98.35;99227.02;215280;1290;138509;-90
2023/03/24 09:23:41;;;;;;;8.70;3.80;;;;;;;15.11;98.07;99223.24;214814;1291;138805;-90
2023/03/24 09:28:42;;;;;;;16.30;6.50;;;;;;;15.24;96.68;99215.08;215381;1288;138721;-90
2023/03/24 09:33:42;;;;;;;8.90;3.70;;;;;;;15.42;95.64;99212.30;214982;1289;139107;-88
2023/03/24 09:38:43;;;;;;;8.50;4.10;;;;;;;15.67;94.25;99204.21;214859;1291;139613;-87
2023/03/24 09:43:59;;;;;;;8.10;4.20;;;;;;;15.87;92.34;99202.20;215585;1288;97766;-87
2023/03/24 09:49:00;;;;;;;;;;;;;;;15.97;90.64;99193.50;214832;1291;139506;-88
2023/03/24 09:54:21;;;;;;;8.60;3.70;;;;;;;16.01;89.80;99190.44;215241;1291;125894;-89
2023/03/24 09:59:28;;;;;;;11.90;4.60;;;;;;;16.02;88.21;99184.84;214670;1294;138791;-88
2023/03/24 10:04:31;;;;;;;7.80;4.00;;;;;;;16.05;88.73;99186.66;215325;1288;139649;-88
2023/03/24 10:09:34;;;;;;;8.90;4.60;;;;;;;16.12;88.44;99189.71;214942;1294;139540;-89
2023/03/24 10:14:41;;;;;;;10.90;5.50;;;;;;;16.14;88.79;99183.69;215484;1294;138737;-90
2023/03/24 10:19:51;;;;;;;8.50;4.80;;;;;;;16.15;88.10;99186.42;214752;1289;138871;-89
2023/03/24 10:25:24;;;;;;;11.90;5.20;;;;;;;16.11;88.37;99181.09;215237;1289;139177;-86
2023/03/24 10:30:29;;;;;;;12.60;5.20;;;;;;;16.10;89.88;99175.25;214857;1289;140495;-87
2023/03/24 10:35:35;;;;;;;9.00;4.90;;;;;;;16.12;89.77;99168.21;214982;1292;138964;-90
2023/03/24 10:40:36;;;;;;;;;;;;;;;16.08;89.22;99172.95;214585;1292;138750;-86
2023/03/24 10:45:43;;;;;;;10.10;4.50;;;;;;;16.01;88.91;99174.42;215478;1289;125477;-86
2023/03/24 10:50:44;;;;;;;8.60;4.60;;;;;;;15.93;88.81;99168.31;214570;1291;139082;-85
2023/03/24 10:55:45;;;;;;;11.10;5.70;;;;;;;15.85;88.83;99171.75;215201;1289;96702;-88
2023/03/24 11:00:46;;;;;;;11.70;5.30;;;;;;;15.78;89.06;99164.27;214463;1289;139062;-86
2023/03/24 11:05:46;;;;;;;9.00;5.20;;;;;;;15.80;88.57;99169.29;214892;1289;139201;-87
2023/03/24 11:10:48;;;;;;;9.90;4.60;;;;;;;15.83;88.70;99167.29;214686;1289;139122;-88
2023/03/24 11:16:13;;;;;;;9.50;5.60;;;;;;;15.88;88.64;99168.10;216096;1289;138745;-87
2023/03/24 11:21:14;;;;;;;10.40;5.00;;;;;;;15.88;88.02;99163.38;215301;1289;139256;-87
2023/03/24 11:26:21;;;;;;;11.10;4.70;;;;;;;15.90;87.18;99169.29;216105;1294;139852;-89
2023/03/24 11:31:29;;;;;;;11.40;5.90;;;;;;;15.94;87.81;99170.38;214683;1289;139820;-87
2023/03/24 11:36:31;;;;;;;9.20;5.10;;;;;;;15.99;87.37;99166.95;215282;1293;139545;-87
2023/03/24 11:41:34;;;;;;;10.10;5.10;;;;;;;16.05;87.82;99169.71;214858;1294;139622;-87
2023/03/24 11:46:38;;;;;;;12.10;5.40;;;;;;;16.10;87.46;99169.21;215462;1289;140365;-87
2023/03/24 11:51:43;;;;;;;8.60;4.70;;;;;;;16.25;87.92;99165.41;214971;1289;139340;-87
2023/03/24 11:56:46;;;;;;;9.20;4.70;;;;;;;16.46;87.58;99154.52;215398;1289;138891;-87
2023/03/24 12:01:56;;;;;;;9.40;5.30;;;;;;;16.62;87.18;99149.05;214512;1288;138616;-89
2023/03/24 12:07:24;;;;;;;9.20;5.10;;;;;;;16.79;85.95;99141.02;215111;1292;138996;-88
2023/03/24 12:12:50;;;;;;;10.40;4.60;;;;;;;16.98;85.47;99127.81;214422;1292;139781;-84
2023/03/24 12:18:33;;;;;;;13.50;5.10;;;;;;;17.20;84.09;99122.89;215024;1289;138886;-86
2023/03/24 12:23:52;;;;;;;8.60;4.90;;;;;;;17.31;82.89;99115.92;214387;1289;138807;-85
2023/03/24 12:29:08;;;;;;;11.60;4.80;;;;;;;17.42;83.05;99122.86;214567;1289;139205;-86
2023/03/24 12:34:38;;;;;;;9.50;4.60;;;;;;;17.54;83.45;99122.71;215094;1292;138862;-89
2023/03/24 12:39:59;;;;;;;7.50;3.80;;;;;;;17.66;83.07;99117.49;214532;1292;139208;-84
2023/03/24 12:45:25;;;;;;;8.70;3.70;;;;;;;17.80;82.55;99122.45;215069;1294;139433;-86
2023/03/24 12:50:54;;;;;;;6.10;3.30;;;;;;;17.92;81.66;99121.39;214389;1292;139445;-87
2023/03/24 12:56:00;;;;;;;10.00;3.50;;;;;;;17.96;80.23;99113.92;215549;1291;96610;-82
2023/03/24 13:01:23;;;;;;;6.20;3.30;;;;;;;17.94;79.61;99112.98;214686;1289;139318;-84
2023/03/24 13:06:36;;;;;;;6.70;3.00;;;;;;;17.94;78.66;99115.43;214847;1294;139702;-84
2023/03/24 13:11:57;;;;;;;5.10;2.30;;;;;;;18.04;78.93;99109.66;214981;1293;138657;-84
2023/03/24 13:17:07;;;;;;;5.70;2.10;;;;;;;18.07;77.17;99102.74;215839;1292;139742;-85
2023/03/24 13:22:15;;;;;;;6.70;2.40;;;;;;;18.08;77.14;99094.86;215010;1288;138899;-86
2023/03/24 13:27:23;;;;;;;3.60;1.80;;;;;;;18.00;75.49;99088.45;215155;1295;138766;-85
2023/03/24 13:32:32;;;;;;;4.70;2.20;;;;;;;17.97;76.12;99091.15;214562;1292;139461;-84
2023/03/24 13:37:45;;;;;;;4.80;2.30;;;;;;;18.00;76.24;99078.72;215057;1293;97998;-84
2023/03/24 13:42:54;;;;;;;4.10;2.10;;;;;;;18.06;76.03;99078.23;214216;1292;138482;-86
2023/03/24 13:47:58;;;;;;;3.70;2.30;;;;;;;18.10;75.29;99078.77;215147;1294;138738;-84
2023/03/24 13:53:05;;;;;;;6.20;2.30;;;;;;;18.10;75.11;99071.45;214682;1293;139788;-84
2023/03/24 13:58:22;;;;;;;4.80;2.30;;;;;;;18.12;75.57;99066.10;215808;1293;138981;-86
2023/03/24 14:03:35;;;;;;;4.60;2.30;;;;;;;18.16;74.00;99072.88;214844;1294;139320;-87
2023/03/24 14:08:51;;;;;;;5.10;2.50;;;;;;;18.11;73.07;99078.63;215269;1289;139592;-84
2023/03/24 14:13:52;;;;;;;4.00;2.10;;;;;;;18.11;73.56;99076.95;214879;1292;139443;-86
2023/03/24 14:19:07;;;;;;;5.20;2.80;;;;;;;18.11;73.17;99076.04;214781;1293;139026;-86
2023/03/24 14:24:42;;;;;;;4.20;2.10;;;;;;;18.11;72.54;99075.23;215217;1289;138681;-85
2023/03/24 14:29:51;;;;;;;17.90;7.10;;;;;;;18.12;72.46;99062.08;214195;1289;140174;-86
2023/03/24 14:34:58;;;;;;;4.50;2.50;;;;;;;18.03;72.13;99065.86;215189;1293;139037;-84
2023/03/24 14:40:00;;;;;;;6.00;3.30;;;;;;;17.95;72.71;99070.31;215251;1295;138913;-87
2023/03/24 14:45:25;;;;;;;4.40;2.40;;;;;;;17.89;73.21;99068.41;215841;1289;138881;-87
2023/03/24 14:50:27;;;;;;;7.30;2.50;;;;;;;17.80;73.31;99055.81;215290;1293;139438;-86
2023/03/24 14:55:29;;;;;;;5.60;2.70;;;;;;;17.71;73.44;99057.45;215921;1289;97713;-86
2023/03/24 15:00:37;;;;;;;3.50;2.10;;;;;;;17.62;73.91;99064.70;214933;1289;138950;-87
2023/03/24 15:05:38;;;;;;;4.70;1.90;;;;;;;17.54;73.87;99068.07;215356;1291;138516;-86
2023/03/24 15:10:41;;;;;;;4.50;2.00;;;;;;;17.45;74.74;99083.97;214863;1288;139213;-86
2023/03/24 15:15:46;;;;;;;5.20;2.90;;;;;;;17.20;78.43;99104.42;214963;1289;138719;-83
2023/03/24 15:20:48;;;;;;;5.70;1.90;;;;;;;16.80;81.36;99098.33;214547;1292;139181;-84
2023/03/24 15:25:50;;;;;;;4.90;2.10;;;;;;;16.44;82.97;99097.78;215113;1289;97979;-85
2023/03/24 15:30:51;;;;;;;7.10;2.70;;;;;;;16.07;83.98;99111.35;215065;1289;139797;-84
2023/03/24 15:35:57;;;;;;;8.20;2.90;;;;;;;15.71;85.71;99106.69;215062;1289;139050;-84
2023/03/24 15:41:02;;;;;;;5.40;2.40;;;;;;;15.50;87.22;99109.64;214546;1289;138989;-83
2023/03/24 15:46:04;;;;;;;5.00;1.90;;;;;;;15.29;87.65;99104.95;214953;1290;139271;-84
2023/03/24 15:51:10;;;;;;;6.00;2.00;;;;;;;15.06;88.93;99098.05;214553;1292;139412;-85
2023/03/24 15:56:18;;;;;;;6.80;2.90;;;;;;;14.88;90.15;99094.45;215063;1291;139161;-84
2023/03/24 16:01:34;;;;;;;5.70;2.60;;;;;;;14.70;91.09;99091.33;214609;1294;139285;-85
2023/03/24 16:06:38;;;;;;;6.20;2.30;;;;;;;14.49;91.95;99086.19;214808;1288;139999;-85
2023/03/24 16:11:40;;;;;;;5.70;2.40;;;;;;;14.27;92.50;99098.45;214195;1293;432204;-84
2023/03/24 16:16:42;;;;;;;4.30;2.00;;;;;;;14.09;93.13;99108.35;214694;1291;139020;-85
2023/03/24 16:21:43;;;;;;;5.10;2.20;;;;;;;13.95;93.56;99117.08;214413;1289;139333;-87
2023/03/24 16:26:44;;;;;;;5.30;2.00;;;;;;;13.84;93.67;99124.52;214985;1288;139818;-85
2023/03/24 16:31:49;;;;;;;5.10;1.90;;;;;;;13.71;93.26;99129.70;214592;1289;140009;-86
2023/03/24 16:36:52;;;;;;;5.30;1.90;;;;;;;13.60;93.06;99139.42;214891;1292;139487;-84
2023/03/24 16:41:53;;;;;;;7.20;2.50;;;;;;;13.52;93.11;99142.22;214483;1290;139066;-84
2023/03/24 16:46:57;;;;;;;6.40;2.60;;;;;;;13.41;92.96;99145.91;215017;1288;138865;-83
2023/03/24 16:51:57;;;;;;;7.40;2.50;;;;;;;13.34;93.46;99155.23;214564;1289;140524;-85
2023/03/24 16:56:58;;;;;;;6.20;2.60;;;;;;;13.27;93.77;99159.33;215123;1289;139172;-87
2023/03/24 17:02:04;;;;;;;7.40;3.00;;;;;;;13.20;94.50;99178.40;214628;1291;139605;-85
2023/03/24 17:07:07;;;;;;;7.10;3.50;;;;;;;13.13;94.97;99192.90;215159;1289;108514;-85
2023/03/24 17:12:08;;;;;;;9.50;4.20;;;;;;;13.05;95.59;99192.66;214553;1289;139658;-86
2023/03/24 17:17:11;;;;;;;10.60;4.80;;;;;;;12.99;96.86;99196.71;214919;1294;138958;-87
2023/03/24 17:22:16;;;;;;;10.80;4.70;;;;;;;12.89;97.50;99198.52;214688;1289;139665;-87
2023/03/24 17:27:17;;;;;;;11.70;6.10;;;;;;;12.80;98.38;99196.09;214994;1294;139025;-84
2023/03/24 17:32:18;;;;;;;11.50;4.60;;;;;;;12.73;98.96;99206.45;214944;1289;210362;-83
2023/03/24 17:37:18;;;;;;;10.00;4.50;;;;;;;12.64;98.51;99205.90;215215;1288;97878;-84
2023/03/24 17:42:19;;;;;;;9.30;3.70;;;;;;;12.54;98.13;99166.10;214406;1289;142041;-84
2023/03/24 17:47:19;;;;;;;15.80;7.00;;;;;;;12.51;98.29;99169.54;214829;1291;138889;-85
2023/03/24 17:52:20;;;;;;;20.00;10.30;;;;;;;12.47;98.15;99176.14;214698;1288;139199;-85
2023/03/24 17:57:20;;;;;;;15.60;9.40;;;;;;;12.37;98.00;99176.23;214837;1289;139349;-84
2023/03/24 18:02:21;;;;;;;16.10;7.80;;;;;;;12.30;98.10;99164.85;214805;1289;139453;-84
2023/03/24 18:07:21;;;;;;;17.10;8.70;;;;;;;12.23;98.25;99152.83;215396;1290;97947;-83
2023/03/24 18:12:23;;;;;;;19.90;10.50;;;;;;;12.13;99.09;99182.77;214690;1291;139859;-83
2023/03/24 18:17:23;;;;;;;18.70;10.70;;;;;;;12.06;99.58;99211.07;215151;1290;139813;-84
2023/03/24 18:22:24;;;;;;;16.90;9.10;;;;;;;12.01;99.67;99223.98;215172;1289;139857;-84
2023/03/24 18:27:24;;;;;;;13.50;7.00;;;;;;;11.94;99.88;99240.47;214968;1291;139661;-84
2023/03/24 18:32:25;;;;;;;10.90;5.80;;;;;;;11.87;99.98;99252.38;215032;1289;139902;-85
2023/03/24 18:37:29;;;;;;;13.40;6.90;;;;;;;11.79;100.00;99244.92;216397;1290;98014;-85
2023/03/24 18:42:30;;;;;;;19.70;9.60;;;;;;;11.71;100.00;99251.01;215631;1292;139368;-86
2023/03/24 18:47:30;;;;;;;23.70;10.80;;;;;;;11.64;100.00;99255.66;216678;1289;140855;-85
2023/03/24 18:52:31;;;;;;;23.70;10.40;;;;;;;11.58;100.00;99255.08;215907;1289;139214;-86
2023/03/24 18:57:32;;;;;;;16.20;8.60;;;;;;;11.48;100.00;99264.87;215907;1289;140025;-85
2023/03/24 19:02:32;;;;;;;14.90;6.80;;;;;;;11.35;100.00;99285.08;215298;1294;139096;-86
2023/03/24 19:07:35;;;;;;;24.80;10.90;;;;;;;11.25;100.00;99294.86;215672;1288;97955;-86
2023/03/24 19:12:36;;;;;;;25.60;10.70;;;;;;;11.14;100.00;99287.82;214744;1290;139122;-85
2023/03/24 19:17:37;;;;;;;15.90;7.90;;;;;;;11.04;100.00;99289.08;214969;1289;139766;-85
2023/03/24 19:22:40;;;;;;;13.10;6.30;;;;;;;10.94;100.00;99278.07;214394;1289;139720;-85
2023/03/24 19:27:40;;;;;;;22.80;9.60;;;;;;;10.85;100.00;99277.76;215039;1288;139115;-85
2023/03/24 19:32:41;;;;;;;24.30;10.60;;;;;;;10.77;100.00;99274.53;214393;1288;140334;-86
2023/03/24 19:37:41;;;;;;;17.60;8.80;;;;;;;10.68;100.00;99271.92;214998;1289;99290;-85
2023/03/24 19:42:43;;;;;;;12.70;6.60;;;;;;;10.59;100.00;99270.19;214517;1288;139367;-85
2023/03/24 19:47:47;;;;;;;12.50;6.20;;;;;;;10.52;100.00;99272.75;215075;1291;138988;-86
2023/03/24 19:52:47;;;;;;;11.80;6.00;;;;;;;10.44;100.00;99278.95;214548;1291;139189;-86
2023/03/24 19:57:48;;;;;;;12.70;6.30;;;;;;;10.36;100.00;99282.86;215020;1291;139051;-87
2023/03/24 20:02:49;;;;;;;9.20;4.50;;;;;;;10.29;100.00;99298.38;214498;1288;139088;-86
2023/03/24 20:07:52;;;;;;;12.10;5.40;;;;;;;10.24;100.00;99294.16;215106;1290;107065;-86
2023/03/24 20:12:53;;;;;;;14.30;6.50;;;;;;;10.19;100.00;99286.17;214454;1289;140770;-86
2023/03/24 20:17:53;;;;;;;12.80;6.40;;;;;;;10.13;100.00;99288.73;214877;1288;139233;-86
2023/03/24 20:22:54;;;;;;;14.50;7.50;;;;;;;10.07;100.00;99295.91;214506;1289;139737;-86
2023/03/24 20:27:55;;;;;;;16.70;7.00;;;;;;;10.03;100.00;99310.44;214967;1289;139717;-86
2023/03/24 20:32:56;;;;;;;13.80;6.50;;;;;;;9.99;100.00;99311.08;214448;1291;139070;-87
2023/03/24 20:37:57;;;;;;;13.10;6.20;;;;;;;9.95;100.00;99302.05;215234;1288;98848;-87
2023/03/24 20:42:57;;;;;;;14.20;6.10;;;;;;;9.92;100.00;99304.27;214478;1288;139022;-87
2023/03/24 20:47:58;;;;;;;16.30;6.90;;;;;;;9.89;100.00;99312.69;214861;1289;139184;-86
2023/03/24 20:52:58;;;;;;;12.20;6.40;;;;;;;9.87;100.00;99310.56;214458;1289;139406;-86
2023/03/24 20:58:00;;;;;;;15.90;7.50;;;;;;;9.82;100.00;99316.40;214950;1289;139312;-86
2023/03/24 21:03:00;;;;;;;16.30;7.10;;;;;;;9.77;100.00;99325.98;214423;1288;139377;-86
2023/03/24 21:08:01;;;;;;;16.50;7.80;;;;;;;9.72;100.00;99320.44;215030;1291;98000;-86
2023/03/24 21:13:02;;;;;;;17.20;7.90;;;;;;;9.67;100.00;99325.86;214375;1289;138823;-86
2023/03/24 21:18:03;;;;;;;15.30;7.10;;;;;;;9.63;100.00;99325.56;214974;1289;138880;-87
2023/03/24 21:23:03;;;;;;;18.10;8.00;;;;;;;9.59;100.00;99329.19;214367;1289;139783;-86
2023/03/24 21:28:03;;;;;;;20.10;7.60;;;;;;;9.54;100.00;99334.53;214852;1288;139717;-88
2023/03/24 21:33:04;;;;;;;21.90;9.80;;;;;;;9.50;100.00;99325.69;214453;1289;139550;-86
2023/03/24 21:38:04;;;;;;;19.30;8.00;;;;;;;9.44;100.00;99327.65;215103;1289;97932;-86
2023/03/24 21:43:05;;;;;;;15.80;6.60;;;;;;;9.40;100.00;99323.89;214499;1289;138858;-87
2023/03/24 21:48:06;;;;;;;18.80;8.10;;;;;;;9.33;100.00;99326.27;215006;1289;139155;-86
2023/03/24 21:53:13;;;;;;;13.30;6.80;;;;;;;9.28;100.00;99318.02;214793;1289;139553;-86
2023/03/24 21:58:13;;;;;;;15.90;7.60;;;;;;;9.23;100.00;99320.71;215700;1289;139219;-86
2023/03/24 22:03:15;;;;;;;14.80;7.40;;;;;;;9.18;100.00;99329.50;214769;1288;139415;-86
2023/03/24 22:08:21;;;;;;;13.10;6.30;;;;;;;9.13;100.00;99330.13;215156;1291;139019;-86
2023/03/24 22:13:21;;;;;;;15.90;7.60;;;;;;;9.09;100.00;99339.00;214868;1291;138257;-87
2023/03/24 22:18:24;;;;;;;15.40;7.60;;;;;;;9.04;100.00;99349.66;215280;1289;139231;-87
2023/03/24 22:23:25;;;;;;;14.90;8.00;;;;;;;8.99;100.00;99353.90;214770;1289;138998;-87
2023/03/24 22:28:25;;;;;;;14.70;7.90;;;;;;;8.94;100.00;99347.77;215198;1289;140230;-86
2023/03/24 22:33:27;;;;;;;15.00;7.20;;;;;;;8.89;100.00;99341.73;214666;1289;140746;-87
2023/03/24 22:38:28;;;;;;;15.90;7.40;;;;;;;8.83;100.00;99350.43;215167;1289;139407;-87
2023/03/24 22:43:30;;;;;;;17.60;8.30;;;;;;;8.78;100.00;99360.94;215144;1288;139456;-87
2023/03/24 22:48:30;;;;;;;17.40;8.60;;;;;;;8.73;100.00;99363.98;215376;1290;139135;-87
2023/03/24 22:53:30;;;;;;;16.50;7.80;;;;;;;8.67;100.00;99347.22;214683;1289;138709;-88
2023/03/24 22:58:31;;;;;;;18.10;9.10;;;;;;;8.61;100.00;99346.34;215190;1291;140307;-86
2023/03/24 23:03:32;;;;;;;17.70;9.00;;;;;;;8.56;100.00;99346.02;214479;1292;139425;-87
2023/03/24 23:08:32;;;;;;;19.00;8.10;;;;;;;8.50;100.00;99349.53;215040;1290;139556;-86